createdAt,value
2022-09-17T00:01:22.975Z,2.58
2022-09-17T00:03:52.710Z,2.78
2022-09-17T00:06:21.185Z,3.28
2022-09-17T00:08:48.929Z,2.90
2022-09-17T00:11:21.072Z,2.80
2022-09-17T00:13:50.652Z,2.92
2022-09-17T00:16:28.239Z,3.40
2022-09-17T00:18:56.479Z,2.47
2022-09-17T00:21:24.115Z,3.08
2022-09-17T00:23:55.947Z,2.72
2022-09-17T00:26:23.793Z,2.70
2022-09-17T00:28:52.631Z,2.92
2022-09-17T00:31:21.060Z,3.05
2022-09-17T00:33:50.434Z,2.75
2022-09-17T00:36:20.454Z,3.05
2022-09-17T00:38:50.344Z,2.63
2022-09-17T00:41:18.009Z,3.70
2022-09-17T00:43:47.309Z,3.13
2022-09-17T00:46:38.866Z,2.72
2022-09-17T00:49:13.562Z,2.40
2022-09-17T00:51:46.820Z,2.65
2022-09-17T00:54:15.020Z,2.70
2022-09-17T00:56:43.621Z,2.60
2022-09-17T00:59:11.650Z,2.60
2022-09-17T01:01:39.774Z,2.75
2022-09-17T01:04:17.153Z,2.78
2022-09-17T01:06:50.237Z,2.72
2022-09-17T01:09:29.998Z,2.45
2022-09-17T01:12:22.610Z,1.83
2022-09-17T01:15:14.556Z,2.00
2022-09-17T01:17:51.531Z,2.38
2022-09-17T01:21:05.820Z,2.60
2022-09-17T01:23:56.662Z,2.25
2022-09-17T01:27:01.983Z,2.42
2022-09-17T01:29:44.228Z,2.38
2022-09-17T01:32:20.061Z,2.28
2022-09-17T01:34:57.696Z,1.85
2022-09-17T01:37:31.830Z,1.73
2022-09-17T01:40:05.680Z,1.92
2022-09-17T01:42:39.625Z,2.08
2022-09-17T01:45:11.584Z,1.88
2022-09-17T01:47:45.706Z,1.63
2022-09-17T01:50:17.869Z,3.25
2022-09-17T01:52:48.911Z,2.90
2022-09-17T01:55:18.628Z,2.72
2022-09-17T01:57:50.646Z,2.13
2022-09-17T02:00:18.932Z,2.38
2022-09-17T02:02:52.721Z,2.42
2022-09-17T02:05:24.705Z,2.58
2022-09-17T02:07:56.632Z,2.17
2022-09-17T02:10:28.377Z,2.72
2022-09-17T02:13:00.231Z,3.00
2022-09-17T02:15:32.421Z,2.60
2022-09-17T02:18:07.445Z,2.70
2022-09-17T02:20:41.504Z,2.70
2022-09-17T02:23:14.682Z,2.50
2022-09-17T02:25:48.239Z,1.95
2022-09-17T02:28:22.313Z,2.38
2022-09-17T02:30:51.005Z,2.25
2022-09-17T02:33:21.368Z,1.98
2022-09-17T02:35:49.045Z,2.00
2022-09-17T02:38:23.151Z,2.50
2022-09-17T02:40:55.744Z,2.10
2022-09-17T02:43:30.835Z,2.05
2022-09-17T02:46:16.592Z,2.50
2022-09-17T02:49:08.739Z,1.77
2022-09-17T02:51:46.622Z,1.83
2022-09-17T02:54:25.727Z,2.28
2022-09-17T02:57:06.017Z,2.20
2022-09-17T02:59:42.528Z,2.55
2022-09-17T03:02:17.352Z,2.33
2022-09-17T03:04:48.554Z,2.58
2022-09-17T03:07:18.607Z,2.55
2022-09-17T03:09:46.389Z,2.10
2022-09-17T03:12:14.294Z,1.92
2022-09-17T03:14:41.981Z,2.20
2022-09-17T03:17:09.706Z,2.10
2022-09-17T03:19:37.334Z,1.80
2022-09-17T03:22:06.378Z,2.15
2022-09-17T03:24:34.051Z,2.22
2022-09-17T03:27:01.683Z,2.20
2022-09-17T03:29:29.313Z,2.25
2022-09-17T03:31:57.049Z,2.55
2022-09-17T03:34:24.908Z,1.65
2022-09-17T03:36:52.523Z,2.00
2022-09-17T03:39:21.520Z,2.33
2022-09-17T03:41:49.256Z,2.08
2022-09-17T03:44:18.672Z,1.90
2022-09-17T03:46:46.718Z,2.35
2022-09-17T03:49:14.464Z,1.80
2022-09-17T03:51:42.331Z,1.67
2022-09-17T03:54:10.637Z,2.22
2022-09-17T03:56:39.605Z,1.45
2022-09-17T03:59:07.516Z,2.65
2022-09-17T04:01:36.242Z,1.67
2022-09-17T04:04:03.975Z,1.50
2022-09-17T04:06:31.961Z,2.03
2022-09-17T04:09:00.876Z,1.52
2022-09-17T04:11:28.470Z,1.70
2022-09-17T04:13:57.581Z,1.40
2022-09-17T04:16:25.285Z,1.30
2022-09-17T04:18:53.014Z,2.00
2022-09-17T04:21:20.675Z,1.50
2022-09-17T04:23:48.203Z,2.50
2022-09-17T04:26:15.883Z,1.17
2022-09-17T04:28:43.424Z,1.55
2022-09-17T04:31:12.414Z,2.10
2022-09-17T04:33:42.923Z,1.95
2022-09-17T04:36:10.649Z,2.05
2022-09-17T04:38:38.321Z,1.95
2022-09-17T04:41:07.777Z,1.95
2022-09-17T04:43:35.452Z,1.77
2022-09-17T04:46:02.996Z,1.40
2022-09-17T04:48:32.032Z,1.88
2022-09-17T04:50:59.730Z,2.05
2022-09-17T04:53:27.418Z,1.58
2022-09-17T04:55:55.462Z,1.60
2022-09-17T04:58:23.197Z,1.60
2022-09-17T05:00:50.852Z,1.73
2022-09-17T05:03:18.492Z,1.95
2022-09-17T05:05:47.362Z,1.85
2022-09-17T05:08:15.049Z,2.05
2022-09-17T05:10:42.688Z,2.47
2022-09-17T05:13:10.439Z,1.40
2022-09-17T05:15:38.077Z,1.77
2022-09-17T05:18:05.848Z,1.88
2022-09-17T05:20:33.455Z,1.67
2022-09-17T05:23:02.422Z,1.83
2022-09-17T05:25:30.935Z,1.65
2022-09-17T05:27:58.701Z,2.75
2022-09-17T05:30:26.367Z,1.75
2022-09-17T05:33:00.929Z,2.22
2022-09-17T05:35:28.962Z,2.72
2022-09-17T05:38:02.542Z,1.80
2022-09-17T05:40:31.478Z,2.33
2022-09-17T05:43:01.179Z,1.83
2022-09-17T05:45:29.740Z,2.00
2022-09-17T05:47:57.948Z,1.90
2022-09-17T05:50:26.843Z,1.85
2022-09-17T05:52:55.135Z,2.20
2022-09-17T05:55:25.050Z,1.95
2022-09-17T05:57:52.909Z,2.40
2022-09-17T06:00:20.662Z,1.95
2022-09-17T06:02:55.339Z,2.10
2022-09-17T06:05:23.209Z,2.33
2022-09-17T06:07:50.921Z,1.88
2022-09-17T06:10:18.745Z,1.85
2022-09-17T06:12:47.898Z,2.05
2022-09-17T06:15:15.825Z,2.13
2022-09-17T06:17:43.492Z,2.28
2022-09-17T06:20:11.335Z,1.40
2022-09-17T06:22:39.116Z,1.92
2022-09-17T06:25:07.926Z,1.90
2022-09-17T06:27:36.332Z,3.03
2022-09-17T06:30:07.482Z,2.33
2022-09-17T06:32:35.421Z,3.08
2022-09-17T06:35:03.343Z,1.98
2022-09-17T06:37:33.012Z,1.15
2022-09-17T06:40:01.033Z,1.90
2022-09-17T06:42:30.079Z,1.95
2022-09-17T06:44:59.767Z,1.95
2022-09-17T06:47:30.231Z,2.13
2022-09-17T06:49:59.778Z,2.13
2022-09-17T06:52:27.379Z,1.27
2022-09-17T06:54:55.076Z,1.70
2022-09-17T06:57:22.636Z,1.42
2022-09-17T06:59:51.122Z,1.40
2022-09-17T07:02:18.783Z,0.85
2022-09-17T07:04:48.353Z,1.20
2022-09-17T07:07:18.642Z,0.95
2022-09-17T07:09:46.882Z,0.80
2022-09-17T07:12:14.853Z,0.93
2022-09-17T07:14:42.698Z,1.38
2022-09-17T07:17:10.386Z,1.25
2022-09-17T07:19:38.158Z,0.70
2022-09-17T07:22:07.479Z,1.08
2022-09-17T07:24:38.044Z,0.90
2022-09-17T07:27:06.243Z,0.88
2022-09-17T07:29:36.862Z,0.80
2022-09-17T07:32:04.587Z,0.77
2022-09-17T07:34:32.390Z,1.23
2022-09-17T07:37:00.548Z,0.77
2022-09-17T07:39:29.791Z,1.05
2022-09-17T07:41:57.529Z,1.02
2022-09-17T07:44:25.150Z,1.00
2022-09-17T07:46:52.905Z,1.90
2022-09-17T07:49:20.651Z,1.60
2022-09-17T07:51:48.271Z,0.95
2022-09-17T07:54:16.181Z,0.90
2022-09-17T07:56:45.128Z,2.00
2022-09-17T07:59:13.059Z,1.33
2022-09-17T08:01:40.884Z,1.25
2022-09-17T08:04:08.733Z,1.42
2022-09-17T08:06:38.766Z,1.40
2022-09-17T08:09:07.069Z,1.25
2022-09-17T08:14:28.657Z,1.38
2022-09-17T08:16:57.024Z,1.67
2022-09-17T08:19:25.197Z,1.83
2022-09-17T08:21:52.942Z,1.30
2022-09-17T08:24:20.515Z,1.35
2022-09-17T08:26:48.303Z,2.58
2022-09-17T08:29:15.863Z,1.42
2022-09-17T08:31:44.907Z,1.42
2022-09-17T08:34:13.074Z,1.63
2022-09-17T08:36:40.796Z,1.60
2022-09-17T08:39:10.029Z,1.27
2022-09-17T08:41:50.478Z,1.23
2022-09-17T08:44:31.417Z,1.40
2022-09-17T08:47:06.415Z,1.13
2022-09-17T08:49:36.355Z,1.38
2022-09-17T08:52:31.192Z,0.88
2022-09-17T08:55:07.899Z,0.60
2022-09-17T08:57:40.521Z,1.02
2022-09-17T09:00:13.191Z,1.25
2022-09-17T09:03:00.868Z,1.15
2022-09-17T09:05:33.360Z,1.13
2022-09-17T09:08:06.210Z,1.17
2022-09-17T09:10:48.930Z,0.73
2022-09-17T09:13:20.156Z,0.77
2022-09-17T09:15:54.704Z,0.50
2022-09-17T09:18:26.692Z,0.80
2022-09-17T09:20:56.146Z,0.73
2022-09-17T09:23:33.228Z,0.65
2022-09-17T09:26:17.025Z,0.50
2022-09-17T09:29:06.698Z,0.90
2022-09-17T09:31:45.462Z,0.60
2022-09-17T09:34:15.967Z,0.60
2022-09-17T09:36:43.605Z,1.75
2022-09-17T09:39:16.836Z,0.80
2022-09-17T09:41:48.357Z,0.43
2022-09-17T09:44:17.584Z,0.60
2022-09-17T09:46:57.792Z,0.30
2022-09-17T09:49:40.606Z,0.47
2022-09-17T09:52:19.803Z,0.70
2022-09-17T09:55:00.758Z,0.30
2022-09-17T09:57:40.750Z,0.70
2022-09-17T10:00:28.441Z,0.40
2022-09-17T10:03:01.089Z,0.73
2022-09-17T10:05:30.545Z,1.20
2022-09-17T10:07:58.696Z,0.90
2022-09-17T10:10:26.355Z,0.75
2022-09-17T10:13:07.575Z,0.80
2022-09-17T10:15:35.300Z,0.60
2022-09-17T10:18:14.001Z,0.60
2022-09-17T10:20:58.810Z,0.70
2022-09-17T10:23:29.151Z,0.70
2022-09-17T10:25:57.826Z,0.80
2022-09-17T10:28:36.262Z,0.70
2022-09-17T10:31:10.138Z,0.57
2022-09-17T10:33:41.609Z,0.80
2022-09-17T10:36:14.715Z,1.00
2022-09-17T10:38:44.088Z,0.70
2022-09-17T10:41:15.340Z,0.60
2022-09-17T10:43:43.401Z,0.68
2022-09-17T10:46:16.476Z,0.50
2022-09-17T10:48:47.725Z,0.63
2022-09-17T10:51:25.013Z,0.63
2022-09-17T10:54:04.562Z,0.70
2022-09-17T10:56:36.860Z,1.00
2022-09-17T10:59:29.086Z,1.30
2022-09-17T11:02:07.226Z,0.65
2022-09-17T11:04:46.218Z,0.80
2022-09-17T11:07:33.255Z,0.70
2022-09-17T11:10:11.045Z,1.95
2022-09-17T11:12:48.501Z,0.90
2022-09-17T11:15:31.089Z,1.00
2022-09-17T11:18:23.390Z,1.38
2022-09-17T11:21:08.494Z,0.88
2022-09-17T11:23:59.740Z,0.70
2022-09-17T11:26:33.933Z,0.70
2022-09-17T11:29:20.611Z,1.00
2022-09-17T11:32:03.940Z,1.17
2022-09-17T11:34:36.752Z,1.20
2022-09-17T11:37:11.651Z,0.80
2022-09-17T11:39:48.407Z,1.05
2022-09-17T11:42:21.168Z,1.00
2022-09-17T11:44:53.736Z,0.93
2022-09-17T11:47:24.846Z,0.82
2022-09-17T11:49:57.587Z,0.82
2022-09-17T11:52:31.210Z,0.90
2022-09-17T11:55:07.119Z,1.17
2022-09-17T11:57:38.486Z,1.13
2022-09-17T12:00:14.176Z,1.75
2022-09-17T12:02:50.149Z,0.75
2022-09-17T12:05:21.567Z,1.00
2022-09-17T12:07:54.590Z,0.90
2022-09-17T12:10:42.476Z,1.40
2022-09-17T12:13:23.561Z,1.02
2022-09-17T12:15:57.138Z,1.20
2022-09-17T12:18:40.227Z,1.25
2022-09-17T12:21:14.743Z,1.38
2022-09-17T12:23:46.951Z,1.00
2022-09-17T12:26:32.283Z,1.08
2022-09-17T12:29:06.809Z,1.42
2022-09-17T12:31:46.014Z,1.48
2022-09-17T12:34:27.294Z,1.83
2022-09-17T12:37:03.831Z,1.63
2022-09-17T12:39:54.832Z,1.92
2022-09-17T12:42:38.696Z,1.50
2022-09-17T12:45:22.337Z,1.40
2022-09-17T12:48:02.995Z,1.85
2022-09-17T12:50:43.276Z,1.75
2022-09-17T12:53:26.130Z,2.45
2022-09-17T12:56:25.131Z,2.70
2022-09-17T12:59:06.370Z,1.73
2022-09-17T13:01:40.001Z,2.00
2022-09-17T13:04:18.692Z,2.03
2022-09-17T13:07:15.712Z,2.15
2022-09-17T13:09:59.482Z,1.50
2022-09-17T13:12:33.359Z,1.77
2022-09-17T13:15:23.794Z,1.42
2022-09-17T13:18:13.304Z,1.50
2022-09-17T13:21:01.878Z,2.05
2022-09-17T13:23:33.236Z,1.33
2022-09-17T13:26:05.235Z,1.27
2022-09-17T13:31:51.259Z,1.38
2022-09-17T13:34:30.760Z,1.40
2022-09-17T13:37:00.069Z,1.50
2022-09-17T13:39:43.283Z,1.45
2022-09-17T13:42:15.242Z,1.30
2022-09-17T13:44:45.482Z,0.90
2022-09-17T13:47:28.905Z,1.25
2022-09-17T13:50:02.292Z,1.40
2022-09-17T13:52:40.089Z,1.08
2022-09-17T13:55:09.818Z,1.23
2022-09-17T13:57:50.360Z,1.33
2022-09-17T14:00:51.127Z,1.70
2022-09-17T14:03:57.098Z,1.48
2022-09-17T14:06:54.833Z,1.17
2022-09-17T14:09:38.542Z,1.52
2022-09-17T14:12:38.998Z,1.23
2022-09-17T14:15:34.831Z,1.08
2022-09-17T14:18:04.233Z,1.00
2022-09-17T14:20:35.700Z,1.10
2022-09-17T14:23:04.481Z,0.95
2022-09-17T14:25:41.253Z,1.13
2022-09-17T14:28:17.517Z,0.90
2022-09-17T14:30:45.887Z,1.10
2022-09-17T14:33:18.029Z,1.10
2022-09-17T14:35:48.925Z,0.80
2022-09-17T14:38:21.778Z,0.80
2022-09-17T14:40:58.202Z,0.68
2022-09-17T14:43:43.639Z,0.80
2022-09-17T14:46:16.909Z,0.70
2022-09-17T14:48:44.982Z,0.95
2022-09-17T14:51:25.373Z,0.60
2022-09-17T14:54:11.982Z,0.50
2022-09-17T14:56:48.215Z,0.98
2022-09-17T14:59:22.534Z,0.68
2022-09-17T15:01:50.526Z,1.05
2022-09-17T15:04:23.714Z,1.02
2022-09-17T15:06:53.573Z,0.80
2022-09-17T15:09:25.748Z,1.00
2022-09-17T15:12:11.098Z,1.10
2022-09-17T15:14:40.804Z,1.10
2022-09-17T15:17:16.219Z,1.33
2022-09-17T15:19:47.945Z,0.98
2022-09-17T15:22:19.922Z,1.23
2022-09-17T15:24:54.248Z,1.13
2022-09-17T15:27:25.604Z,1.13
2022-09-17T15:29:56.948Z,1.38
2022-09-17T15:32:24.911Z,1.40
2022-09-17T15:35:19.736Z,0.90
2022-09-17T15:38:18.595Z,0.98
2022-09-17T15:40:40.976Z,1.25
2022-09-17T15:43:17.885Z,1.02
2022-09-17T15:45:46.077Z,0.80
2022-09-17T15:48:25.685Z,0.75
2022-09-17T15:50:54.936Z,0.85
2022-09-17T15:53:26.516Z,0.88
2022-09-17T15:56:03.815Z,0.82
2022-09-17T15:58:36.883Z,0.70
2022-09-17T16:01:53.098Z,1.10
2022-09-17T16:04:29.950Z,0.80
2022-09-17T16:07:00.972Z,0.70
2022-09-17T16:09:41.861Z,0.75
2022-09-17T16:12:12.911Z,0.65
2022-09-17T16:14:44.551Z,0.60
2022-09-17T16:17:32.950Z,0.70
2022-09-17T16:20:05.878Z,0.90
2022-09-17T16:22:34.520Z,0.90
2022-09-17T16:25:03.741Z,0.73
2022-09-17T16:27:34.336Z,0.70
2022-09-17T16:30:09.054Z,0.60
2022-09-17T16:32:36.866Z,1.10
2022-09-17T16:35:05.130Z,1.00
2022-09-17T16:37:32.900Z,1.35
2022-09-17T16:40:01.817Z,1.13
2022-09-17T16:42:32.683Z,0.88
2022-09-17T16:45:03.436Z,1.27
2022-09-17T16:47:37.013Z,0.93
2022-09-17T16:50:07.073Z,1.20
2022-09-17T16:52:34.782Z,0.90
2022-09-17T16:55:02.804Z,0.98
2022-09-17T16:57:32.782Z,1.48
2022-09-17T17:00:00.803Z,1.17
2022-09-17T17:02:28.741Z,1.10
2022-09-17T17:04:56.729Z,1.00
2022-09-17T17:07:25.212Z,1.10
2022-09-17T17:09:52.903Z,1.10
2022-09-17T17:12:20.615Z,1.73
2022-09-17T17:14:52.312Z,0.80
2022-09-17T17:17:20.703Z,0.98
2022-09-17T17:19:48.552Z,0.82
2022-09-17T17:22:16.845Z,1.60
2022-09-17T17:24:44.654Z,0.98
2022-09-17T17:27:13.957Z,1.35
2022-09-17T17:29:41.747Z,1.00
2022-09-17T17:32:10.876Z,0.80
2022-09-17T17:34:38.579Z,1.08
2022-09-17T17:37:06.318Z,0.88
2022-09-17T17:39:34.187Z,0.70
2022-09-17T17:42:01.877Z,1.23
2022-09-17T17:44:29.630Z,0.90
2022-09-17T17:46:57.339Z,1.40
2022-09-17T17:49:26.603Z,1.08
2022-09-17T17:51:54.395Z,0.80
2022-09-17T17:54:22.065Z,1.00
2022-09-17T17:56:49.692Z,0.90
2022-09-17T17:59:17.407Z,1.00
2022-09-17T18:01:45.177Z,1.20
2022-09-17T18:04:13.282Z,0.93
2022-09-17T18:06:42.750Z,1.20
2022-09-17T18:09:10.462Z,1.20
2022-09-17T18:11:38.298Z,1.05
2022-09-17T18:14:06.051Z,1.10
2022-09-17T18:16:33.873Z,1.60
2022-09-17T18:19:01.883Z,1.30
2022-09-17T18:21:29.742Z,1.20
2022-09-17T18:23:59.091Z,1.40
2022-09-17T18:26:28.185Z,1.50
2022-09-17T18:28:56.730Z,1.48
2022-09-17T18:31:26.763Z,1.60
2022-09-17T18:33:58.036Z,1.15
2022-09-17T18:36:26.267Z,1.50
2022-09-17T18:38:55.048Z,1.77
2022-09-17T18:41:24.040Z,1.70
2022-09-17T18:43:51.777Z,1.70
2022-09-17T18:46:19.506Z,1.13
2022-09-17T18:48:47.725Z,1.85
2022-09-17T18:51:15.408Z,1.52
2022-09-17T18:53:43.250Z,1.80
2022-09-17T18:56:17.472Z,1.48
2022-09-17T18:58:48.891Z,1.92
2022-09-17T19:01:17.236Z,2.28
2022-09-17T19:03:45.118Z,1.63
2022-09-17T19:06:15.083Z,1.80
2022-09-17T19:08:43.550Z,1.70
2022-09-17T19:11:11.794Z,2.38
2022-09-17T19:13:41.831Z,2.22
2022-09-17T19:16:13.151Z,2.00
2022-09-17T19:18:41.046Z,2.08
2022-09-17T19:21:11.917Z,2.10
2022-09-17T19:23:42.046Z,2.25
2022-09-17T19:26:11.110Z,3.03
2022-09-17T19:28:38.935Z,2.30
2022-09-17T19:31:07.758Z,2.22
2022-09-17T19:33:37.040Z,4.97
2022-09-17T19:36:06.997Z,1.73
2022-09-17T19:38:35.190Z,2.05
2022-09-17T19:41:06.673Z,1.88
2022-09-17T19:43:34.754Z,1.50
2022-09-17T19:46:03.326Z,1.80
2022-09-17T19:48:31.198Z,2.10
2022-09-17T19:51:00.461Z,2.25
2022-09-17T19:53:28.296Z,2.13
2022-09-17T19:55:56.140Z,2.03
2022-09-17T19:58:23.760Z,1.92
2022-09-17T20:00:55.993Z,1.73
2022-09-17T20:03:23.662Z,2.45
2022-09-17T20:05:51.184Z,1.90
2022-09-17T20:08:20.289Z,4.15
2022-09-17T20:10:50.128Z,1.65
2022-09-17T20:13:18.946Z,2.10
2022-09-17T20:15:46.747Z,1.90
2022-09-17T20:18:14.429Z,2.00
2022-09-17T20:20:42.528Z,2.10
2022-09-17T20:23:10.305Z,1.70
2022-09-17T20:25:39.328Z,1.98
2022-09-17T20:28:07.302Z,2.17
2022-09-17T20:30:35.033Z,2.17
2022-09-17T20:33:02.734Z,1.70
2022-09-17T20:35:30.373Z,1.38
2022-09-17T20:40:48.142Z,1.83
2022-09-17T20:43:15.842Z,1.65
2022-09-17T20:45:43.547Z,1.55
2022-09-17T20:48:13.499Z,1.95
2022-09-17T20:50:41.140Z,1.65
2022-09-17T20:53:08.793Z,1.70
2022-09-17T20:55:36.468Z,1.35
2022-09-17T20:58:06.713Z,1.50
2022-09-17T21:00:34.392Z,1.52
2022-09-17T21:03:02.748Z,1.30
2022-09-17T21:05:30.357Z,1.00
2022-09-17T21:07:58.021Z,1.17
2022-09-17T21:10:25.589Z,1.40
2022-09-17T21:12:53.150Z,2.20
2022-09-17T21:15:22.112Z,1.25
2022-09-17T21:17:49.814Z,1.48
2022-09-17T21:20:18.067Z,1.17
2022-09-17T21:22:48.770Z,1.50
2022-09-17T21:25:16.625Z,1.52
2022-09-17T21:27:44.401Z,2.17
2022-09-17T21:30:13.449Z,3.38
2022-09-17T21:32:42.469Z,1.38
2022-09-17T21:35:10.300Z,1.25
2022-09-17T21:37:39.334Z,1.20
2022-09-17T21:40:08.444Z,1.20
2022-09-17T21:42:38.675Z,1.58
2022-09-17T21:45:07.496Z,1.45
2022-09-17T21:47:35.068Z,1.48
2022-09-17T21:50:04.453Z,1.35
2022-09-17T21:52:33.629Z,1.40
2022-09-17T21:55:01.369Z,1.50
2022-09-17T21:57:29.121Z,1.85
2022-09-17T21:59:56.865Z,1.23
2022-09-17T22:02:24.605Z,1.58
2022-09-17T22:04:54.521Z,1.63
2022-09-17T22:07:23.603Z,1.40
2022-09-17T22:09:51.260Z,1.67
2022-09-17T22:12:21.068Z,1.55
2022-09-17T22:14:48.816Z,1.20
2022-09-17T22:17:17.079Z,1.20
2022-09-17T22:19:44.737Z,1.42
2022-09-17T22:22:12.301Z,1.70
2022-09-17T22:24:44.321Z,2.05
2022-09-17T22:27:11.898Z,1.30
2022-09-17T22:29:39.606Z,1.20
2022-09-17T22:32:07.458Z,1.20
2022-09-17T22:34:35.249Z,1.17
2022-09-17T22:37:03.398Z,1.48
2022-09-17T22:39:31.319Z,1.20
2022-09-17T22:42:00.167Z,1.30
2022-09-17T22:44:27.947Z,1.23
2022-09-17T22:46:55.591Z,1.13
2022-09-17T22:49:23.266Z,1.35
2022-09-17T22:51:50.813Z,1.10
2022-09-17T22:54:19.492Z,1.13
2022-09-17T22:56:48.132Z,1.10
2022-09-17T22:59:17.960Z,1.08
2022-09-17T23:01:45.698Z,1.20
2022-09-17T23:04:13.513Z,1.05
2022-09-17T23:06:42.926Z,1.90
2022-09-17T23:09:12.174Z,1.50
2022-09-17T23:11:40.706Z,1.70
2022-09-17T23:14:11.060Z,1.30
2022-09-17T23:16:41.927Z,1.40
2022-09-17T23:19:09.753Z,1.50
2022-09-17T23:21:38.340Z,1.10
2022-09-17T23:24:06.393Z,1.25
2022-09-17T23:26:34.518Z,1.17
2022-09-17T23:29:04.844Z,1.30
2022-09-17T23:31:34.792Z,1.40
2022-09-17T23:34:05.743Z,1.75
2022-09-17T23:36:35.807Z,1.77
2022-09-17T23:39:05.265Z,1.20
2022-09-17T23:41:34.882Z,1.70
2022-09-17T23:44:05.274Z,1.40
2022-09-17T23:46:34.977Z,1.75
2022-09-17T23:49:05.237Z,1.63
2022-09-17T23:51:35.825Z,1.42
2022-09-17T23:54:05.161Z,1.40
2022-09-17T23:56:32.757Z,1.13
2022-09-17T23:59:02.253Z,1.50
